Overview Statistics Trail Chart Weather Telemetry Raw packets
 

This is the latest recevied weather packets stored in our database for station/object Ostrach. If no packets are shown the sender has not sent any weather packets the latest 10 day(s).

<< 9 10 11 12 13 14 15 >>
Time Temp. Humidity Pressure Rain* Wind** Luminosity Snow
1788224529 18.89° C 69% 1014.4 hPa 0 mm - - -
1788222731 18.89° C 69% 1014.4 hPa 0 mm - - -
1788220931 18.89° C 69% 1014.4 hPa 0 mm - - -
1788219131 18.89° C 69% 1014.4 hPa 0 mm - - -
1788217331 18.89° C 69% 1014.4 hPa 0 mm - - -
1788215532 18.89° C 69% 1014.4 hPa 0 mm - - -
1788213730 13.89° C 78% 1018.3 hPa 3.81 mm - - -
1788211930 15° C 76% 1018.2 hPa 3.81 mm - - -
1788210131 15.56° C 72% 1017.9 hPa 3.81 mm - - -
1788208331 15° C 71% 1017.8 hPa 3.81 mm - - -
1788206530 16.11° C 69% 1017.4 hPa 3.81 mm - - -
1788204730 17.22° C 63% 1017.1 hPa 3.81 mm - - -
1788202931 18.89° C 57% 1017 hPa 3.81 mm - - -
1788201131 19.44° C 54% 1016.6 hPa 3.81 mm - - -
1788199330 20.56° C 49% 1015.8 hPa 3.81 mm - - -
1788197530 21.67° C 47% 1015.2 hPa 3.81 mm - - -
1788195731 22.78° C 45% 1014.9 hPa 3.81 mm - - -
1788193930 23.89° C 42% 1014.5 hPa 3.81 mm - - -
1788192131 24.44° C 42% 1014.3 hPa 3.81 mm - - -
1788190331 24.44° C 45% 1014.1 hPa 3.81 mm - - -
1788188531 24.44° C 45% 1014.1 hPa 3.81 mm - - -
1788186730 24.44° C 41% 1014.5 hPa 3.81 mm - - -
1788184931 24.44° C 43% 1014.4 hPa 3.81 mm - - -
1788183131 24.44° C 45% 1014.5 hPa 3.81 mm - - -
1788181331 23.89° C 46% 1014.6 hPa 3.81 mm - - -

* Rain since midnight (hover to see other rain measurements)
** Current wind speed in m/s (hover to see current wind gust speed)